Time;durP1;ratioP1;P1;durP2;ratioP2;P2;SDS_P1;SDS_P2;PMS_P1;PMS_P2;Temp;Humidity;BMP_temperature;BMP_pressure;BME280_temperature;BME280_humidity;BME280_pressure;Samples;Min_cycle;Max_cycle;Signal;HPM_P1;HPM_P2
2023/09/24 00:00:59;;;;;;;3.30;3.00;;;18.90;91.50;;;;;;4963442;28;20492;-89
2023/09/24 00:03:26;;;;;;;4.27;2.80;;;18.90;91.50;;;;;;4979817;28;20496;-88
2023/09/24 00:05:52;;;;;;;3.20;2.90;;;18.90;91.70;;;;;;4948071;28;20768;-85
2023/09/24 00:08:18;;;;;;;4.20;3.13;;;18.90;92.20;;;;;;4947688;28;20495;-88
2023/09/24 00:10:52;;;;;;;2.70;2.50;;;18.90;92.00;;;;;;4960145;28;20470;-88
2023/09/24 00:13:19;;;;;;;2.90;2.70;;;18.90;91.50;;;;;;4961603;28;20922;-89
2023/09/24 00:15:45;;;;;;;3.33;3.03;;;18.90;91.50;;;;;;4963919;28;20421;-89
2023/09/24 00:18:11;;;;;;;3.23;2.93;;;18.90;91.50;;;;;;4981441;28;20442;-87
2023/09/24 00:20:39;;;;;;;4.37;2.60;;;18.90;91.80;;;;;;4998726;28;20908;-89
2023/09/24 00:23:04;;;;;;;2.60;2.40;;;18.90;91.90;;;;;;4965978;28;20775;-87
2023/09/24 00:25:30;;;;;;;3.17;2.87;;;18.90;92.10;;;;;;4970672;28;20452;-88
2023/09/24 00:27:56;;;;;;;5.07;2.70;;;18.90;92.00;;;;;;4947688;28;20281;-88
2023/09/24 00:30:25;;;;;;;3.00;2.80;;;18.80;91.40;;;;;;4976212;28;20241;-89
2023/09/24 00:32:53;;;;;;;3.27;2.77;;;18.80;91.40;;;;;;4943950;28;20421;-89
2023/09/24 00:35:22;;;;;;;3.13;2.67;;;18.70;91.30;;;;;;4982393;28;20431;-87
2023/09/24 00:37:50;;;;;;;2.90;2.70;;;18.80;91.30;;;;;;4955654;28;20510;-89
2023/09/24 00:40:19;;;;;;;3.13;2.80;;;18.80;91.30;;;;;;4962988;28;20453;-90
2023/09/24 00:42:45;;;;;;;4.83;2.53;;;18.80;91.30;;;;;;4963080;28;20459;-89
2023/09/24 00:45:12;;;;;;;3.60;2.90;;;18.80;91.50;;;;;;4965112;28;20425;-88
2023/09/24 00:47:44;;;;;;;3.20;2.90;;;18.80;91.30;;;;;;4974843;28;20536;-87
2023/09/24 00:50:15;;;;;;;3.20;2.73;;;18.70;91.20;;;;;;4966487;28;20540;-88
2023/09/24 00:52:43;;;;;;;4.40;2.43;;;18.80;91.30;;;;;;4998314;28;20453;-88
2023/09/24 00:55:13;;;;;;;3.20;2.90;;;18.70;91.20;;;;;;4997405;28;20486;-88
2023/09/24 00:57:41;;;;;;;2.53;2.33;;;18.70;91.20;;;;;;4947231;28;20787;-89
2023/09/24 01:00:11;;;;;;;3.10;2.80;;;18.70;91.20;;;;;;4986610;28;20457;-86
2023/09/24 01:02:39;;;;;;;3.17;2.83;;;18.70;91.20;;;;;;4958249;28;20743;-89
2023/09/24 01:05:10;;;;;;;3.00;2.60;;;18.70;91.20;;;;;;4962955;28;20495;-88
2023/09/24 01:07:38;;;;;;;2.83;2.53;;;18.70;91.20;;;;;;4943037;28;21133;-89
2023/09/24 01:10:10;;;;;;;5.37;2.87;;;18.70;91.30;;;;;;4949371;28;20466;-88
2023/09/24 01:12:39;;;;;;;3.80;2.57;;;18.70;91.10;;;;;;4944067;28;20437;-89
2023/09/24 01:15:11;;;;;;;3.47;3.20;;;18.60;91.10;;;;;;4961679;28;20451;-86
2023/09/24 01:17:37;;;;;;;3.30;2.80;;;18.60;91.00;;;;;;4963276;28;20484;-88
2023/09/24 01:20:06;;;;;;;2.67;2.47;;;18.60;91.10;;;;;;4978212;28;21060;-86
2023/09/24 01:22:32;;;;;;;2.90;2.70;;;18.60;91.10;;;;;;4962103;28;20433;-89
2023/09/24 01:25:00;;;;;;;4.27;2.67;;;18.60;91.10;;;;;;4978684;28;20461;-89
2023/09/24 01:27:28;;;;;;;3.37;3.07;;;18.60;91.00;;;;;;4962524;28;20439;-90
2023/09/24 01:29:56;;;;;;;3.37;2.80;;;18.60;91.00;;;;;;4970003;28;20499;-88
2023/09/24 01:32:24;;;;;;;2.70;2.50;;;18.60;91.00;;;;;;4951499;28;20466;-89
2023/09/24 01:34:52;;;;;;;2.83;2.63;;;18.60;91.30;;;;;;4946517;28;20540;-89
2023/09/24 01:37:22;;;;;;;2.93;2.70;;;18.50;90.90;;;;;;4978111;28;20516;-89
2023/09/24 01:39:50;;;;;;;3.00;2.80;;;18.50;90.90;;;;;;4954281;28;20215;-87
2023/09/24 01:42:16;;;;;;;2.57;2.37;;;18.50;90.90;;;;;;4944077;28;20422;-88
2023/09/24 01:44:42;;;;;;;3.00;2.70;;;18.50;90.90;;;;;;4974880;28;20428;-89
2023/09/24 01:47:08;;;;;;;2.70;2.50;;;18.50;90.90;;;;;;4962550;28;20465;-87
2023/09/24 01:49:34;;;;;;;3.97;2.57;;;18.50;90.90;;;;;;4982609;28;20482;-87
2023/09/24 01:52:03;;;;;;;2.43;2.23;;;18.50;90.90;;;;;;4972993;28;20461;-88
2023/09/24 01:54:30;;;;;;;2.90;2.60;;;18.50;91.00;;;;;;4961756;28;20192;-85
2023/09/24 01:56:57;;;;;;;3.13;2.83;;;18.50;91.20;;;;;;4970496;28;20434;-88
2023/09/24 01:59:24;;;;;;;3.17;2.50;;;18.50;91.00;;;;;;4972633;28;20471;-86
2023/09/24 02:01:53;;;;;;;2.57;2.37;;;18.50;91.10;;;;;;4982651;28;20464;-88
2023/09/24 02:04:19;;;;;;;2.77;2.23;;;18.40;91.10;;;;;;4956111;28;20458;-87
2023/09/24 02:06:48;;;;;;;2.87;2.57;;;18.40;90.90;;;;;;4981283;28;20420;-90
2023/09/24 02:09:16;;;;;;;3.20;2.90;;;18.50;90.90;;;;;;4967550;28;20466;-85
2023/09/24 02:11:42;;;;;;;2.83;2.63;;;18.40;91.00;;;;;;4973525;28;20450;-88
2023/09/24 02:14:08;;;;;;;2.60;2.40;;;18.40;90.80;;;;;;4958804;28;20438;-87
2023/09/24 02:16:35;;;;;;;3.30;2.77;;;18.40;90.90;;;;;;4965818;28;20473;-86
2023/09/24 02:19:04;;;;;;;3.10;2.60;;;18.40;90.60;;;;;;4964370;28;20235;-89
2023/09/24 02:21:32;;;;;;;2.93;2.60;;;18.40;90.60;;;;;;4969013;28;20677;-88
2023/09/24 02:24:02;;;;;;;4.50;2.60;;;18.40;90.60;;;;;;4961081;28;20512;-87
2023/09/24 02:26:33;;;;;;;4.80;2.43;;;18.40;90.60;;;;;;4964906;28;20459;-88
2023/09/24 02:29:04;;;;;;;8.93;3.53;;;18.40;90.60;;;;;;4976889;28;20534;-88
2023/09/24 02:31:30;;;;;;;3.77;2.50;;;18.40;91.00;;;;;;4961408;28;21236;-89
2023/09/24 02:33:57;;;;;;;3.10;2.90;;;18.30;90.80;;;;;;4960753;28;20638;-88
2023/09/24 02:36:25;;;;;;;2.83;2.60;;;18.30;90.70;;;;;;4944831;28;20488;-88
2023/09/24 02:38:51;;;;;;;3.80;2.70;;;18.30;90.70;;;;;;4976774;28;20941;-88
2023/09/24 02:41:17;;;;;;;3.77;2.57;;;18.30;90.80;;;;;;4978911;28;20622;-89
2023/09/24 02:43:44;;;;;;;2.63;2.43;;;18.30;90.70;;;;;;4980094;28;20450;-88
2023/09/24 02:46:11;;;;;;;3.37;2.73;;;18.30;90.60;;;;;;4980346;28;20447;-87
2023/09/24 02:48:42;;;;;;;2.50;2.30;;;18.30;90.60;;;;;;4947729;28;20481;-89
2023/09/24 02:51:09;;;;;;;3.60;3.10;;;18.30;90.60;;;;;;4958777;28;20472;-89
2023/09/24 02:53:38;;;;;;;2.83;2.63;;;18.30;90.50;;;;;;4944860;28;20421;-89
2023/09/24 02:56:04;;;;;;;4.00;2.60;;;18.30;90.50;;;;;;4965943;28;20843;-89
2023/09/24 02:58:30;;;;;;;3.43;2.90;;;18.20;90.60;;;;;;5001525;28;20875;-89
2023/09/24 03:01:02;;;;;;;2.43;2.23;;;18.20;90.50;;;;;;4967864;28;20428;-89
2023/09/24 03:03:29;;;;;;;2.70;2.50;;;18.20;90.50;;;;;;4979707;28;20463;-90
2023/09/24 03:05:55;;;;;;;5.10;2.67;;;18.20;90.60;;;;;;4961009;28;20441;-88
2023/09/24 03:08:23;;;;;;;2.80;2.43;;;18.20;90.70;;;;;;4992927;28;20432;-88
2023/09/24 03:10:49;;;;;;;2.87;2.67;;;18.20;91.10;;;;;;4949336;28;20469;-88
2023/09/24 03:13:16;;;;;;;3.30;3.00;;;18.20;90.60;;;;;;4960856;28;20442;-89
2023/09/24 03:15:44;;;;;;;4.63;2.63;;;18.20;90.50;;;;;;4976516;28;20491;-88
2023/09/24 03:18:10;;;;;;;3.07;2.87;;;18.10;90.50;;;;;;4949139;28;20465;-89
2023/09/24 03:20:43;;;;;;;3.50;3.13;;;18.10;90.40;;;;;;4946249;28;20955;-85
2023/09/24 03:23:09;;;;;;;4.70;3.00;;;18.10;90.40;;;;;;4975219;28;20436;-86
2023/09/24 03:25:36;;;;;;;3.50;3.03;;;18.10;90.40;;;;;;4960364;28;20452;-90
2023/09/24 03:28:02;;;;;;;3.53;2.70;;;18.10;90.40;;;;;;4976648;28;20432;-88
2023/09/24 03:30:29;;;;;;;2.70;2.50;;;18.10;90.40;;;;;;4997811;28;20470;-89
2023/09/24 03:32:58;;;;;;;4.93;2.53;;;18.10;90.50;;;;;;4965156;28;20913;-86
2023/09/24 03:35:27;;;;;;;2.97;2.77;;;18.10;90.40;;;;;;4960392;28;21214;-88
2023/09/24 03:37:54;;;;;;;5.37;3.00;;;18.10;90.40;;;;;;4976415;28;20483;-89
2023/09/24 03:40:22;;;;;;;2.27;2.13;;;18.00;90.30;;;;;;4952407;28;20523;-87
2023/09/24 03:42:48;;;;;;;3.27;2.70;;;18.00;90.40;;;;;;4958308;28;20434;-89
2023/09/24 03:45:19;;;;;;;4.93;3.10;;;18.00;90.40;;;;;;4960843;28;20948;-86
2023/09/24 03:47:49;;;;;;;3.53;2.70;;;18.00;90.40;;;;;;4978589;28;20866;-90
2023/09/24 03:50:17;;;;;;;3.30;3.00;;;18.00;90.40;;;;;;4945540;28;20940;-88
2023/09/24 03:52:43;;;;;;;2.70;2.50;;;18.00;90.40;;;;;;4947929;28;20579;-87
2023/09/24 03:55:10;;;;;;;2.80;2.50;;;18.10;90.60;;;;;;4945506;28;20752;-87
2023/09/24 03:57:37;;;;;;;3.20;2.90;;;18.00;90.70;;;;;;4925815;28;20528;-89
2023/09/24 04:03:00;;;;;;;3.53;2.90;;;18.00;90.50;;;;;;4960611;28;20526;-88
2023/09/24 04:05:27;;;;;;;3.40;3.00;;;18.00;90.40;;;;;;4976845;28;20433;-87
2023/09/24 04:07:54;;;;;;;6.20;2.57;;;17.90;90.30;;;;;;4961539;28;20453;-86
2023/09/24 04:10:22;;;;;;;4.47;2.63;;;18.00;90.40;;;;;;4968762;28;20480;-89
2023/09/24 04:12:52;;;;;;;4.13;2.90;;;17.90;90.50;;;;;;4944351;28;20929;-87
2023/09/24 04:15:28;;;;;;;2.93;2.63;;;18.00;90.80;;;;;;4958893;28;20450;-89
2023/09/24 04:17:56;;;;;;;3.47;3.00;;;17.90;90.40;;;;;;4933955;28;20491;-89
2023/09/24 04:20:24;;;;;;;3.27;2.90;;;17.90;90.50;;;;;;4975970;28;20448;-88
2023/09/24 04:22:49;;;;;;;3.00;2.80;;;17.90;90.40;;;;;;4982511;28;20484;-90
2023/09/24 04:25:26;;;;;;;6.53;3.33;;;17.90;90.70;;;;;;4968730;28;20484;-89
2023/09/24 04:27:52;;;;;;;3.33;2.50;;;17.90;90.60;;;;;;4966423;28;20204;-89
2023/09/24 04:30:19;;;;;;;3.73;3.23;;;17.90;90.70;;;;;;4984088;28;20583;-88
2023/09/24 04:32:53;;;;;;;3.30;3.00;;;17.90;91.00;;;;;;4959763;28;20435;-90
2023/09/24 04:35:23;;;;;;;3.90;3.20;;;17.90;91.10;;;;;;4962514;28;20443;-88
2023/09/24 04:37:52;;;;;;;3.60;3.30;;;17.90;91.20;;;;;;4971849;28;20424;-88
2023/09/24 04:40:18;;;;;;;2.90;2.60;;;17.90;91.40;;;;;;4970542;28;20458;-90
2023/09/24 04:42:46;;;;;;;3.47;2.87;;;17.90;91.40;;;;;;4964135;28;20460;-90
2023/09/24 04:45:14;;;;;;;2.90;2.60;;;17.80;91.50;;;;;;4966342;28;21080;-89
2023/09/24 04:47:41;;;;;;;3.23;2.50;;;17.80;91.60;;;;;;5005823;28;20447;-89
2023/09/24 04:50:11;;;;;;;3.00;2.80;;;17.80;91.50;;;;;;4948132;28;20488;-89
2023/09/24 04:52:44;;;;;;;3.57;2.33;;;17.80;91.50;;;;;;4980530;28;20478;-90
2023/09/24 04:55:11;;;;;;;3.13;2.93;;;17.80;91.60;;;;;;4980793;28;20438;-87
2023/09/24 04:57:37;;;;;;;3.90;2.97;;;17.80;91.60;;;;;;4976265;28;20926;-87
2023/09/24 05:00:04;;;;;;;3.17;2.87;;;17.80;91.60;;;;;;4986280;28;20430;-88
2023/09/24 05:02:30;;;;;;;3.37;3.07;;;17.80;91.70;;;;;;4958524;28;21314;-88
2023/09/24 05:04:56;;;;;;;3.60;3.30;;;17.80;91.80;;;;;;4958674;28;20442;-87
2023/09/24 05:07:22;;;;;;;3.80;3.43;;;17.80;91.80;;;;;;4961430;28;20539;-87
2023/09/24 05:09:56;;;;;;;3.80;3.10;;;17.80;91.90;;;;;;4973970;28;20476;-85
2023/09/24 05:13:28;;;;;;;3.40;3.10;;;17.80;91.80;;;;;;4974226;28;20950;-86
2023/09/24 05:16:57;;;;;;;3.43;2.80;;;17.90;91.90;;;;;;4942561;28;20470;-87
2023/09/24 05:19:23;;;;;;;3.10;2.80;;;17.90;91.90;;;;;;4988332;28;20521;-87
2023/09/24 05:21:49;;;;;;;4.10;3.20;;;17.70;92.80;;;;;;4965311;28;20448;-87
2023/09/24 05:24:15;;;;;;;2.90;2.40;;;17.70;92.50;;;;;;4975548;28;20487;-87
2023/09/24 05:26:43;;;;;;;2.90;2.40;;;17.70;93.30;;;;;;5006037;23;20721;-69
2023/09/24 05:29:09;;;;;;;5.43;2.80;;;17.70;92.20;;;;;;4941233;29;20480;-70
2023/09/24 05:31:35;;;;;;;2.90;2.33;;;17.70;92.20;;;;;;4924816;28;20436;-69
2023/09/24 05:34:04;;;;;;;3.50;2.97;;;17.70;92.20;;;;;;4925720;29;21045;-69
2023/09/24 05:36:33;;;;;;;3.30;3.00;;;17.70;92.10;;;;;;4941888;29;20514;-69
2023/09/24 05:38:59;;;;;;;3.47;2.53;;;17.70;92.20;;;;;;4943339;29;20846;-69
2023/09/24 05:41:29;;;;;;;3.13;2.83;;;17.70;92.10;;;;;;4926604;28;20884;-70
2023/09/24 05:44:00;;;;;;;2.97;2.57;;;17.70;92.10;;;;;;4910380;29;20969;-69
2023/09/24 05:46:29;;;;;;;2.97;2.67;;;17.70;92.10;;;;;;4941917;28;20431;-69
2023/09/24 05:48:59;;;;;;;5.20;2.60;;;17.60;92.10;;;;;;4943478;28;20474;-69
2023/09/24 05:51:25;;;;;;;3.23;2.90;;;17.60;92.00;;;;;;4941914;28;20440;-69
2023/09/24 05:53:52;;;;;;;2.97;2.67;;;17.60;92.00;;;;;;4926268;29;20953;-70
2023/09/24 05:56:19;;;;;;;2.70;2.40;;;17.60;92.00;;;;;;4941536;29;20422;-70
2023/09/24 05:58:45;;;;;;;3.20;2.83;;;17.60;92.00;;;;;;4941219;29;20490;-69
2023/09/24 06:01:17;;;;;;;3.07;2.70;;;17.60;92.00;;;;;;4943258;29;20450;-69
2023/09/24 06:03:43;;;;;;;3.90;2.70;;;17.60;92.00;;;;;;4943113;28;21052;-69
2023/09/24 06:06:09;;;;;;;2.60;2.40;;;17.60;92.10;;;;;;4944882;28;20473;-69
2023/09/24 06:08:37;;;;;;;3.60;2.83;;;17.60;92.00;;;;;;4944862;29;20442;-70
2023/09/24 06:11:04;;;;;;;2.70;2.50;;;17.60;92.10;;;;;;4946260;28;20441;-69
2023/09/24 06:13:31;;;;;;;5.17;3.03;;;17.60;92.10;;;;;;4945916;28;20451;-69
2023/09/24 06:16:01;;;;;;;2.83;2.60;;;17.60;92.20;;;;;;4930351;29;20438;-69
2023/09/24 06:18:29;;;;;;;2.97;2.67;;;17.60;92.30;;;;;;4929380;29;20452;-70
2023/09/24 06:20:57;;;;;;;2.93;2.63;;;17.50;92.10;;;;;;4945477;29;20546;-70
2023/09/24 06:23:25;;;;;;;3.43;2.90;;;17.60;92.20;;;;;;4945057;28;20460;-69
2023/09/24 06:25:55;;;;;;;2.83;2.53;;;17.50;92.20;;;;;;4942434;29;20443;-69
2023/09/24 06:28:24;;;;;;;3.70;2.70;;;17.50;92.30;;;;;;4941664;29;20937;-69
2023/09/24 06:31:03;;;;;;;3.83;2.60;;;17.50;92.20;;;;;;4941262;29;20494;-69
2023/09/24 06:33:29;;;;;;;2.93;2.73;;;17.50;92.30;;;;;;4941699;28;20455;-69
2023/09/24 06:36:02;;;;;;;3.90;2.33;;;17.50;92.30;;;;;;4911253;29;20438;-69
2023/09/24 06:38:28;;;;;;;3.23;2.50;;;17.50;92.30;;;;;;4941568;29;20423;-70
2023/09/24 06:40:58;;;;;;;3.50;2.97;;;17.50;92.30;;;;;;4942194;28;20446;-69
2023/09/24 06:43:27;;;;;;;3.03;2.20;;;17.50;92.40;;;;;;4940725;28;20461;-70
2023/09/24 06:45:54;;;;;;;3.30;2.60;;;17.50;92.50;;;;;;4909237;29;20444;-69
2023/09/24 06:48:21;;;;;;;2.90;2.70;;;17.50;92.60;;;;;;4925218;29;20446;-70
2023/09/24 06:50:48;;;;;;;2.73;2.53;;;17.50;92.60;;;;;;4924173;29;20576;-70
2023/09/24 06:53:14;;;;;;;3.20;2.90;;;17.50;92.70;;;;;;4925270;29;20454;-70
2023/09/24 06:55:40;;;;;;;3.00;2.80;;;17.50;92.60;;;;;;4941980;28;20415;-69
2023/09/24 06:58:06;;;;;;;2.97;2.70;;;17.50;92.60;;;;;;4923362;29;21223;-70
2023/09/24 07:00:32;;;;;;;3.40;2.93;;;17.50;92.70;;;;;;4941810;29;20608;-69
2023/09/24 07:03:00;;;;;;;2.90;2.60;;;17.40;92.60;;;;;;4924919;29;20527;-69
2023/09/24 07:05:26;;;;;;;3.30;2.43;;;17.50;92.80;;;;;;4942101;28;20437;-70
2023/09/24 07:07:53;;;;;;;4.20;3.00;;;17.50;92.80;;;;;;4940426;29;20486;-70
2023/09/24 07:10:22;;;;;;;2.70;2.47;;;17.40;92.70;;;;;;4939757;29;20513;-70
2023/09/24 07:12:50;;;;;;;2.87;2.67;;;17.40;92.80;;;;;;4940984;28;20446;-70
2023/09/24 07:15:16;;;;;;;3.07;2.60;;;17.40;92.70;;;;;;4941220;28;20444;-70
2023/09/24 07:17:45;;;;;;;3.30;2.33;;;17.40;92.60;;;;;;4941720;29;20422;-70
2023/09/24 07:20:14;;;;;;;4.77;2.90;;;17.40;92.70;;;;;;4923572;29;20457;-70
2023/09/24 07:22:40;;;;;;;2.70;2.50;;;17.50;92.70;;;;;;4939308;28;20450;-70
2023/09/24 07:25:07;;;;;;;2.77;2.10;;;17.60;92.80;;;;;;4940038;29;20458;-70
2023/09/24 07:27:34;;;;;;;2.60;2.40;;;17.40;92.70;;;;;;4942867;28;20996;-70
2023/09/24 07:30:00;;;;;;;2.70;2.50;;;17.40;92.80;;;;;;4940273;29;20586;-70
2023/09/24 07:32:28;;;;;;;3.30;2.40;;;17.40;92.70;;;;;;4939579;28;21349;-70
2023/09/24 07:34:56;;;;;;;2.90;2.57;;;17.50;92.80;;;;;;4924389;29;20434;-70
2023/09/24 07:37:22;;;;;;;2.93;2.63;;;17.40;92.80;;;;;;4938890;29;20552;-70
2023/09/24 07:39:49;;;;;;;3.80;2.40;;;17.60;93.00;;;;;;4941615;28;20450;-70
2023/09/24 07:45:07;;;;;;;3.00;2.50;;;17.40;93.00;;;;;;4997488;28;20474;-74
2023/09/24 07:47:33;;;;;;;2.40;2.13;;;17.40;93.00;;;;;;4982358;28;20857;-74
2023/09/24 07:50:09;;;;;;;2.83;2.40;;;17.40;93.00;;;;;;4961829;28;20828;-74
2023/09/24 07:52:37;;;;;;;3.63;2.60;;;17.40;92.90;;;;;;4961481;28;20989;-73
2023/09/24 07:55:06;;;;;;;2.40;2.20;;;17.40;93.00;;;;;;4977119;28;20483;-74
2023/09/24 07:57:35;;;;;;;4.20;2.30;;;17.40;93.00;;;;;;4975895;28;20539;-73
2023/09/24 08:00:03;;;;;;;2.80;2.40;;;17.40;93.00;;;;;;4973809;28;20494;-74
2023/09/24 08:02:50;;;;;;;3.37;2.27;;;17.40;92.90;;;;;;4958027;28;20997;-74
2023/09/24 08:05:23;;;;;;;2.67;2.40;;;17.40;92.90;;;;;;4940992;28;20448;-74
2023/09/24 08:07:49;;;;;;;3.10;2.27;;;17.40;92.90;;;;;;4940660;28;20248;-74
2023/09/24 08:10:18;;;;;;;2.30;2.10;;;17.40;93.00;;;;;;4928897;28;20556;-74
2023/09/24 08:12:47;;;;;;;2.80;2.50;;;17.40;93.10;;;;;;4928602;28;20469;-74
2023/09/24 08:15:15;;;;;;;2.80;2.00;;;17.40;93.10;;;;;;4960239;28;20432;-74
2023/09/24 08:17:43;;;;;;;3.07;1.97;;;17.40;93.20;;;;;;4944798;28;20429;-74
2023/09/24 08:20:13;;;;;;;2.30;2.10;;;17.40;93.10;;;;;;4943653;28;20443;-73
2023/09/24 08:22:40;;;;;;;2.50;2.17;;;17.40;93.10;;;;;;4959986;28;20469;-73
2023/09/24 08:25:06;;;;;;;3.70;2.20;;;17.40;93.10;;;;;;4960691;28;20439;-74
2023/09/24 08:27:33;;;;;;;3.87;2.43;;;17.40;93.20;;;;;;4952388;28;20520;-74
2023/09/24 08:30:00;;;;;;;2.93;2.73;;;17.40;93.20;;;;;;4945363;28;21070;-73
2023/09/24 08:32:27;;;;;;;2.57;2.37;;;17.40;93.20;;;;;;4944903;28;20535;-73
2023/09/24 08:34:58;;;;;;;2.93;2.30;;;17.40;93.30;;;;;;4958588;28;20567;-74
2023/09/24 08:37:26;;;;;;;4.10;2.30;;;17.40;93.30;;;;;;4968891;28;20435;-74
2023/09/24 08:39:55;;;;;;;2.43;2.20;;;17.40;93.30;;;;;;5005133;28;20854;-73
2023/09/24 08:42:21;;;;;;;5.20;2.30;;;17.40;93.20;;;;;;5002385;28;20555;-73
2023/09/24 08:45:05;;;;;;;2.43;2.23;;;17.40;93.20;;;;;;4998240;28;20496;-73
2023/09/24 08:47:41;;;;;;;4.50;2.20;;;17.50;93.30;;;;;;4979185;28;20451;-74
2023/09/24 08:50:08;;;;;;;2.30;2.10;;;17.50;93.30;;;;;;4953057;28;21005;-73
2023/09/24 08:52:37;;;;;;;2.80;2.17;;;17.50;93.30;;;;;;4985702;28;20462;-74
2023/09/24 08:55:09;;;;;;;2.23;2.03;;;17.50;93.30;;;;;;5002613;28;20441;-73
2023/09/24 08:57:36;;;;;;;2.50;2.27;;;17.50;93.30;;;;;;4968963;28;20542;-74
2023/09/24 09:00:06;;;;;;;2.50;2.03;;;17.50;93.30;;;;;;4999137;28;20522;-70
2023/09/24 09:02:33;;;;;;;2.80;2.23;;;17.50;93.40;;;;;;4965056;28;20886;-70
2023/09/24 09:04:59;;;;;;;2.83;2.60;;;17.50;93.40;;;;;;4981662;28;20454;-70
2023/09/24 09:07:25;;;;;;;3.60;2.87;;;17.50;93.40;;;;;;4993804;28;20459;-70
2023/09/24 09:09:54;;;;;;;3.23;2.23;;;17.50;93.40;;;;;;5003048;28;20487;-70
2023/09/24 09:12:25;;;;;;;3.00;2.80;;;17.50;93.50;;;;;;4967398;28;20467;-70
2023/09/24 09:14:52;;;;;;;3.60;2.50;;;17.60;93.60;;;;;;4951925;28;20920;-70
2023/09/24 09:17:22;;;;;;;2.10;1.90;;;17.60;94.00;;;;;;4975714;28;20894;-70
2023/09/24 09:19:56;;;;;;;5.40;2.23;;;17.60;93.60;;;;;;4977739;28;20829;-69
2023/09/24 09:22:28;;;;;;;2.33;2.13;;;17.60;93.60;;;;;;4976955;28;20480;-71
2023/09/24 09:25:06;;;;;;;4.07;3.10;;;17.60;93.70;;;;;;5003358;28;20432;-71
2023/09/24 09:27:42;;;;;;;2.60;2.30;;;17.60;93.60;;;;;;4997151;28;20644;-71
2023/09/24 09:30:20;;;;;;;2.70;2.27;;;17.60;93.60;;;;;;4955096;28;21010;-71
2023/09/24 09:32:49;;;;;;;2.40;2.20;;;17.60;93.70;;;;;;5001918;28;20471;-70
2023/09/24 09:35:18;;;;;;;2.27;2.07;;;17.60;93.60;;;;;;4953668;28;20467;-70
2023/09/24 09:37:53;;;;;;;2.60;2.20;;;17.70;93.70;;;;;;4950915;28;20439;-70
2023/09/24 09:40:23;;;;;;;1.97;1.87;;;17.70;93.70;;;;;;4975383;28;20427;-70
2023/09/24 09:42:56;;;;;;;2.33;2.13;;;17.70;93.70;;;;;;4977056;28;20451;-70
2023/09/24 09:45:26;;;;;;;2.40;2.20;;;17.80;93.70;;;;;;4969596;28;20507;-70
2023/09/24 09:48:04;;;;;;;3.77;2.40;;;17.80;93.70;;;;;;4970900;28;20494;-70
2023/09/24 09:50:36;;;;;;;3.10;2.23;;;17.80;93.80;;;;;;4994528;28;20545;-70
2023/09/24 09:53:07;;;;;;;3.43;2.10;;;17.90;93.80;;;;;;4968983;28;20445;-71
2023/09/24 09:55:42;;;;;;;2.77;2.40;;;17.90;93.80;;;;;;4996258;28;20888;-74
2023/09/24 09:58:12;;;;;;;2.40;2.20;;;17.90;93.70;;;;;;4987543;28;20845;-73
2023/09/24 10:00:39;;;;;;;3.97;2.50;;;17.90;93.70;;;;;;4935135;28;20475;-74
2023/09/24 10:03:07;;;;;;;8.80;2.57;;;18.00;93.80;;;;;;4981498;28;20474;-73
2023/09/24 10:05:34;;;;;;;2.70;2.27;;;18.00;93.70;;;;;;4943740;28;20447;-73
2023/09/24 10:08:22;;;;;;;3.10;2.37;;;18.00;93.70;;;;;;5001623;28;20462;-74
2023/09/24 10:10:48;;;;;;;2.67;2.47;;;18.00;93.70;;;;;;4948912;28;20469;-74
2023/09/24 10:13:52;;;;;;;2.40;2.20;;;18.10;93.80;;;;;;4999318;28;20456;-74
2023/09/24 10:16:25;;;;;;;3.40;1.90;;;18.10;93.70;;;;;;4976219;28;20867;-73
2023/09/24 10:18:59;;;;;;;4.83;2.17;;;18.10;93.70;;;;;;4969562;28;20955;-73
2023/09/24 10:21:36;;;;;;;3.27;2.40;;;18.20;93.70;;;;;;4967174;28;20443;-73
2023/09/24 10:24:25;;;;;;;3.10;2.17;;;18.20;93.70;;;;;;4950560;28;20934;-74
2023/09/24 10:27:03;;;;;;;3.00;2.50;;;18.20;93.60;;;;;;4975966;28;21204;-73
2023/09/24 10:29:44;;;;;;;3.00;2.30;;;18.20;93.60;;;;;;4960998;28;20484;-73
2023/09/24 10:32:12;;;;;;;2.53;2.27;;;18.30;93.50;;;;;;4951360;28;20460;-74
2023/09/24 10:34:59;;;;;;;2.40;2.20;;;18.30;93.60;;;;;;4971004;28;20448;-70
2023/09/24 10:37:34;;;;;;;3.17;2.87;;;18.40;93.60;;;;;;5001105;28;20735;-71
2023/09/24 10:40:03;;;;;;;2.17;1.90;;;18.40;93.50;;;;;;4993293;28;20992;-71
2023/09/24 10:42:31;;;;;;;3.23;2.20;;;18.40;93.50;;;;;;4967006;28;20456;-71
2023/09/24 10:45:06;;;;;;;2.40;2.20;;;18.40;93.40;;;;;;4979591;28;20978;-70
2023/09/24 10:47:45;;;;;;;2.70;2.40;;;18.50;93.40;;;;;;4976479;28;21105;-70
2023/09/24 10:50:19;;;;;;;2.40;2.20;;;18.50;93.30;;;;;;4957113;28;21199;-71
2023/09/24 10:52:59;;;;;;;2.50;2.30;;;18.50;93.30;;;;;;4975159;28;20448;-70
2023/09/24 10:55:30;;;;;;;2.50;2.30;;;18.60;93.40;;;;;;4979458;28;20701;-70
2023/09/24 10:57:58;;;;;;;2.50;2.00;;;18.50;93.40;;;;;;4965172;28;20597;-71
2023/09/24 11:00:25;;;;;;;2.30;2.03;;;18.60;93.30;;;;;;4971702;28;20520;-71
2023/09/24 11:03:04;;;;;;;1.67;1.57;;;18.60;93.20;;;;;;4996045;28;20452;-70
2023/09/24 11:05:35;;;;;;;2.20;2.00;;;18.70;93.20;;;;;;4958955;28;20881;-72
2023/09/24 11:08:00;;;;;;;2.50;2.30;;;18.70;93.20;;;;;;4944906;28;20445;-71
2023/09/24 11:10:27;;;;;;;2.73;2.10;;;18.70;93.20;;;;;;4966211;28;20495;-71
2023/09/24 11:12:56;;;;;;;3.47;3.00;;;18.70;93.20;;;;;;4975578;28;20529;-70
2023/09/24 11:15:24;;;;;;;5.60;2.07;;;18.80;93.20;;;;;;4949754;28;20417;-71
2023/09/24 11:17:55;;;;;;;2.20;2.10;;;18.80;93.10;;;;;;4983455;28;20769;-71
2023/09/24 11:20:23;;;;;;;3.30;2.00;;;18.80;93.10;;;;;;5002053;28;20460;-71
2023/09/24 11:23:09;;;;;;;4.10;2.00;;;18.80;93.00;;;;;;4974817;28;20925;-70
2023/09/24 11:25:48;;;;;;;2.50;2.30;;;18.90;93.00;;;;;;4970418;23;20506;-70
2023/09/24 11:28:27;;;;;;;5.30;2.10;;;18.90;92.90;;;;;;4959393;28;20437;-71
2023/09/24 11:30:55;;;;;;;4.93;2.23;;;18.90;92.90;;;;;;4960501;28;20593;-73
2023/09/24 11:33:23;;;;;;;2.30;1.93;;;19.00;92.90;;;;;;4969594;28;20463;-73
2023/09/24 11:35:54;;;;;;;3.13;2.67;;;19.00;92.90;;;;;;4958809;28;20430;-74
2023/09/24 11:38:32;;;;;;;2.33;2.13;;;19.00;92.90;;;;;;4979816;28;20422;-74
2023/09/24 11:41:06;;;;;;;4.10;1.90;;;19.10;92.80;;;;;;4979045;28;20437;-73
2023/09/24 11:43:37;;;;;;;2.77;2.20;;;19.10;92.80;;;;;;4951342;28;20512;-73
2023/09/24 11:46:32;;;;;;;2.53;2.30;;;19.10;92.70;;;;;;4975281;28;20588;-73
2023/09/24 11:49:00;;;;;;;2.00;1.80;;;19.20;92.70;;;;;;4958018;28;20440;-70
2023/09/24 11:51:27;;;;;;;2.17;1.97;;;19.20;92.60;;;;;;4959156;28;20448;-70
2023/09/24 11:53:59;;;;;;;2.67;2.47;;;19.20;92.60;;;;;;4947301;28;20450;-70
2023/09/24 11:56:27;;;;;;;3.17;2.53;;;19.20;92.60;;;;;;4980094;28;21027;-70
2023/09/24 11:58:55;;;;;;;2.10;1.90;;;19.20;92.50;;;;;;4962119;28;20449;-70
2023/09/24 12:01:21;;;;;;;2.90;2.60;;;19.30;92.50;;;;;;4946345;28;20573;-70
2023/09/24 12:03:49;;;;;;;3.90;2.40;;;19.30;92.50;;;;;;4948172;28;20462;-70
2023/09/24 12:06:20;;;;;;;2.20;1.73;;;19.30;92.60;;;;;;4975656;28;20451;-70
2023/09/24 12:08:46;;;;;;;2.70;2.07;;;19.40;92.50;;;;;;4960353;28;20469;-70
2023/09/24 12:11:12;;;;;;;4.57;2.37;;;19.30;92.50;;;;;;4978649;28;20453;-70
2023/09/24 12:13:39;;;;;;;3.70;1.90;;;19.40;92.40;;;;;;4979698;28;20455;-70
2023/09/24 12:16:09;;;;;;;2.10;1.90;;;19.40;92.40;;;;;;4962543;28;20850;-70
2023/09/24 12:18:40;;;;;;;2.30;2.00;;;19.40;92.40;;;;;;4962194;28;20444;-69
2023/09/24 12:21:06;;;;;;;2.87;2.20;;;19.40;92.30;;;;;;4962929;28;20537;-70
2023/09/24 12:23:39;;;;;;;1.97;1.70;;;19.50;92.40;;;;;;4976069;28;20534;-70
2023/09/24 12:26:10;;;;;;;2.70;2.10;;;19.50;92.40;;;;;;4968190;28;21206;-70
2023/09/24 12:28:38;;;;;;;2.43;2.23;;;19.50;92.40;;;;;;4961482;28;20880;-71
2023/09/24 12:31:05;;;;;;;2.67;2.10;;;19.50;92.40;;;;;;4911888;28;20472;-70
2023/09/24 12:33:32;;;;;;;2.10;1.90;;;19.60;92.30;;;;;;4962036;28;20482;-70
2023/09/24 12:36:06;;;;;;;2.57;1.97;;;19.60;92.30;;;;;;4912850;28;20458;-69
2023/09/24 12:38:34;;;;;;;2.10;1.90;;;19.60;92.30;;;;;;4963462;28;20940;-70
2023/09/24 12:41:01;;;;;;;2.30;2.10;;;19.60;92.30;;;;;;4943284;28;20774;-70
2023/09/24 12:43:27;;;;;;;2.23;2.03;;;19.70;92.40;;;;;;4942741;28;20493;-70
2023/09/24 12:45:54;;;;;;;2.23;2.03;;;19.70;92.30;;;;;;4923007;28;20891;-70
2023/09/24 12:48:25;;;;;;;2.70;2.27;;;19.70;92.40;;;;;;4942272;28;20814;-70
2023/09/24 12:50:51;;;;;;;2.87;2.13;;;19.70;92.30;;;;;;4935338;29;20574;-70
2023/09/24 12:53:17;;;;;;;2.40;2.20;;;19.70;92.30;;;;;;4949816;28;20455;-70
2023/09/24 12:55:45;;;;;;;5.60;1.83;;;19.70;92.40;;;;;;4959317;28;20436;-70
2023/09/24 12:58:11;;;;;;;3.57;2.10;;;19.80;92.30;;;;;;4944121;28;20501;-70
2023/09/24 13:00:37;;;;;;;2.27;2.07;;;19.80;92.20;;;;;;4940782;28;20429;-70
2023/09/24 13:03:06;;;;;;;3.07;2.17;;;19.80;92.20;;;;;;4959296;28;20446;-70
2023/09/24 13:05:35;;;;;;;2.17;1.97;;;19.80;92.10;;;;;;4922673;29;20514;-70